This is the latest recevied weather packets stored in our database for station/object W1HVD. If no packets are shown the sender has not sent any weather packets the latest 1 day(s).
| Time | Temp. | Humidity | Pressure | Rain* | Wind** | Luminosity | Snow |
|---|---|---|---|---|---|---|---|
| 1778013120 | 20.56° C | 57% | 1009.3 hPa | 0 mm | 1.79 m/s, 269° | 360 W/m² | - |
| 1778012815 | 20.56° C | 57% | 1009.2 hPa | 0 mm | 2.68 m/s, 280° | 374 W/m² | - |
| 1778012512 | 20.56° C | 57% | 1009.4 hPa | 0 mm | 0.89 m/s, 144° | 389 W/m² | - |
| 1778012208 | 20.56° C | 56% | 1009.1 hPa | 0 mm | 1.79 m/s, 194° | 400 W/m² | - |
| 1778011906 | 21.11° C | 56% | 1009.2 hPa | 0 mm | 0.89 m/s, 240° | 415 W/m² | - |
| 1778011604 | 21.11° C | 56% | 1009.1 hPa | 0 mm | 0.89 m/s, 260° | 431 W/m² | - |
| 1778011301 | 21.11° C | 55% | 1009.2 hPa | 0 mm | 2.24 m/s, 188° | 445 W/m² | - |
| 1778010997 | 21.67° C | 53% | 1009.3 hPa | 0 mm | 0.89 m/s, 156° | 456 W/m² | - |
| 1778010694 | 22.78° C | 52% | 1009.1 hPa | 0 mm | 1.79 m/s, 226° | 469 W/m² | - |
| 1778010391 | 22.22° C | 53% | 1009.2 hPa | 0 mm | 0.89 m/s, 205° | 481 W/m² | - |
| 1778010087 | 22.22° C | 52% | 1009.2 hPa | 0 mm | 0.89 m/s, 201° | 488 W/m² | - |
| 1778009784 | 22.22° C | 51% | 1009.4 hPa | 0 mm | 3.58 m/s, 238° | 506 W/m² | - |
| 1778009481 | 22.22° C | 51% | 1009.3 hPa | 0 mm | 2.68 m/s, 211° | 517 W/m² | - |
| 1778009180 | 22.78° C | 49% | 1009.3 hPa | 0 mm | 1.79 m/s, 214° | 528 W/m² | - |
| 1778008877 | 22.78° C | 49% | 1009.2 hPa | 0 mm | 1.34 m/s, 244° | 543 W/m² | - |
| 1778008575 | 23.89° C | 47% | 1009 hPa | 0 mm | 1.79 m/s, 209° | 554 W/m² | - |
| 1778008273 | 23.33° C | 48% | 1009.1 hPa | 0 mm | 2.24 m/s, 250° | 562 W/m² | - |
| 1778007968 | 23.89° C | 49% | 1009 hPa | 0 mm | 0.45 m/s, 279° | 573 W/m² | - |
| 1778007663 | 23.89° C | 48% | 1009 hPa | 0 mm | 2.68 m/s, 255° | 584 W/m² | - |
| 1778007360 | 23.89° C | 48% | 1009.2 hPa | 0 mm | 0.89 m/s, 215° | 591 W/m² | - |
| 1778007057 | 24.44° C | 49% | 1009.2 hPa | 0 mm | 0.89 m/s, 139° | 600 W/m² | - |
| 1778006754 | 25° C | 47% | 1009.3 hPa | 0 mm | 1.34 m/s, 142° | 612 W/m² | - |
| 1778006450 | 23.89° C | 48% | 1009.1 hPa | 0 mm | 0.89 m/s, 228° | 621 W/m² | - |
| 1778006147 | 23.89° C | 48% | 1009.2 hPa | 0 mm | 1.34 m/s, 254° | 629 W/m² | - |
| 1778005845 | 23.89° C | 47% | 1009.5 hPa | 0 mm | 2.68 m/s, 113° | 637 W/m² | - |
* Rain latest hour (hover to see other rain measurements)
** Current wind speed in m/s (hover to see current wind gust speed)